Time;durP1;ratioP1;P1;durP2;ratioP2;P2;SDS_P1;SDS_P2;PMS_P1;PMS_P2;Temp;Humidity;BMP_temperature;BMP_pressure;BME280_temperature;BME280_humidity;BME280_pressure;Samples;Min_cycle;Max_cycle;Signal;HPM_P1;HPM_P2
2022/01/15 00:01:44;;;;;;;26.05;2.92;;;2.30;99.90;;;;;;5095059;28;20043;-64
2022/01/15 00:04:10;;;;;;;19.45;3.28;;;2.20;99.90;;;;;;5098548;28;20566;-64
2022/01/15 00:06:36;;;;;;;21.23;2.45;;;2.10;99.90;;;;;;5103306;28;20177;-65
2022/01/15 00:09:03;;;;;;;19.63;1.92;;;2.10;99.90;;;;;;5098516;28;20069;-64
2022/01/15 00:11:28;;;;;;;28.67;2.25;;;2.20;99.90;;;;;;5106638;28;20071;-64
2022/01/15 00:13:58;;;;;;;10.13;1.77;;;2.10;99.90;;;;;;5098126;28;20074;-64
2022/01/15 00:16:33;;;;;;;25.70;2.25;;;2.10;99.90;;;;;;5097603;28;20044;-64
2022/01/15 00:19:07;;;;;;;4.85;1.80;;;2.10;99.90;;;;;;5084739;28;20131;-64
2022/01/15 00:21:33;;;;;;;6.13;1.77;;;2.20;99.90;;;;;;5088045;28;20483;-64
2022/01/15 00:23:58;;;;;;;16.38;2.50;;;2.10;99.90;;;;;;5077776;28;20044;-64
2022/01/15 00:26:24;;;;;;;12.23;1.75;;;2.20;99.90;;;;;;5084877;28;20098;-64
2022/01/15 00:28:50;;;;;;;18.13;2.03;;;2.10;99.90;;;;;;5084698;28;20115;-64
2022/01/15 00:31:16;;;;;;;6.45;2.10;;;2.10;99.90;;;;;;5075130;28;20040;-65
2022/01/15 00:33:42;;;;;;;3.80;1.80;;;2.10;99.90;;;;;;5080665;28;20036;-64
2022/01/15 00:36:07;;;;;;;9.65;3.47;;;2.10;99.90;;;;;;5098607;28;20036;-64
2022/01/15 00:38:33;;;;;;;16.13;3.00;;;2.10;99.90;;;;;;5083484;28;20407;-64
2022/01/15 00:40:59;;;;;;;14.02;2.55;;;2.10;99.90;;;;;;5077496;28;20123;-64
2022/01/15 00:43:24;;;;;;;16.00;2.92;;;2.00;99.90;;;;;;5082249;28;20119;-64
2022/01/15 00:45:50;;;;;;;19.40;2.38;;;1.90;99.90;;;;;;5085010;28;20496;-64
2022/01/15 00:48:16;;;;;;;20.52;2.65;;;2.00;99.90;;;;;;5087255;28;20124;-64
2022/01/15 00:50:42;;;;;;;21.95;3.40;;;1.90;99.90;;;;;;5082884;28;20408;-64
2022/01/15 00:53:08;;;;;;;278.40;9.63;;;1.90;99.90;;;;;;5083661;28;20076;-64
2022/01/15 00:55:34;;;;;;;25.10;3.40;;;1.90;99.90;;;;;;5083806;28;20610;-64
2022/01/15 00:58:00;;;;;;;10.68;3.03;;;1.90;99.90;;;;;;5083501;28;20040;-63
2022/01/15 01:00:27;;;;;;;13.27;3.30;;;1.80;99.90;;;;;;5070666;28;20668;-64
2022/01/15 01:02:53;;;;;;;13.57;3.22;;;1.80;99.90;;;;;;5081742;28;20039;-64
2022/01/15 01:05:20;;;;;;;7.78;2.53;;;1.80;99.90;;;;;;5081368;28;20033;-64
2022/01/15 01:07:46;;;;;;;21.92;3.50;;;1.90;99.90;;;;;;5087580;28;20181;-63
2022/01/15 01:23:26;;;;;;;25.70;3.92;;;1.70;99.90;;;;;;5084020;28;20067;-64
2022/01/15 01:25:58;;;;;;;19.95;3.80;;;1.70;99.90;;;;;;5085775;28;20097;-64
2022/01/15 01:28:31;;;;;;;22.88;3.90;;;1.70;99.90;;;;;;5086049;28;20115;-64
2022/01/15 01:33:36;;;;;;;35.33;3.92;;;1.60;99.90;;;;;;5084712;28;20042;-64
2022/01/15 01:36:16;;;;;;;11.27;3.35;;;1.60;99.90;;;;;;5080478;28;20419;-64
2022/01/15 01:41:15;;;;;;;28.02;3.97;;;1.60;99.90;;;;;;5083736;28;20042;-64
2022/01/15 01:46:29;;;;;;;33.47;3.65;;;1.60;99.90;;;;;;5078912;28;20117;-65
2022/01/15 01:48:56;;;;;;;34.15;4.00;;;1.60;99.90;;;;;;5084799;28;20067;-65
2022/01/15 01:51:34;;;;;;;16.48;3.72;;;1.50;99.90;;;;;;5081321;28;20043;-65
2022/01/15 01:54:05;;;;;;;5.60;2.33;;;1.60;99.90;;;;;;5075171;28;20036;-64
2022/01/15 01:56:32;;;;;;;13.15;2.78;;;1.70;99.90;;;;;;5087385;28;20122;-64
2022/01/15 01:58:59;;;;;;;14.02;2.80;;;1.70;99.90;;;;;;5061655;28;20036;-64
2022/01/15 02:01:25;;;;;;;11.57;2.90;;;1.70;99.90;;;;;;5065956;28;20047;-64
2022/01/15 02:03:51;;;;;;;17.45;3.05;;;1.70;99.90;;;;;;5073035;28;20090;-64
2022/01/15 02:06:18;;;;;;;27.60;2.78;;;1.70;99.90;;;;;;5087451;28;20040;-64
2022/01/15 02:08:44;;;;;;;9.77;2.70;;;1.70;99.90;;;;;;5084221;28;20048;-64
2022/01/15 02:11:10;;;;;;;22.90;2.20;;;1.70;99.90;;;;;;5092458;28;20036;-64
2022/01/15 02:13:41;;;;;;;7.00;1.67;;;1.70;99.90;;;;;;5083821;28;20036;-64
2022/01/15 02:16:07;;;;;;;8.48;1.63;;;1.70;99.90;;;;;;5087470;28;20035;-64
2022/01/15 02:18:36;;;;;;;4.97;1.55;;;1.60;99.90;;;;;;5083227;28;20040;-64
2022/01/15 02:23:41;;;;;;;5.78;1.58;;;1.60;99.90;;;;;;5078664;28;20047;-64
2022/01/15 02:26:08;;;;;;;3.10;1.35;;;1.60;99.90;;;;;;5086330;28;20040;-64
2022/01/15 02:28:39;;;;;;;7.28;1.20;;;1.60;99.90;;;;;;5082446;28;20133;-64
2022/01/15 02:31:08;;;;;;;8.80;1.45;;;1.50;99.90;;;;;;5076784;28;20104;-64
2022/01/15 02:33:35;;;;;;;2.17;1.25;;;1.50;99.90;;;;;;5072939;28;20047;-64
2022/01/15 02:36:02;;;;;;;2.05;1.30;;;1.60;99.90;;;;;;5085219;28;20389;-65
2022/01/15 02:38:28;;;;;;;10.40;1.95;;;1.60;99.90;;;;;;5082716;28;20115;-65
2022/01/15 02:40:53;;;;;;;9.35;2.05;;;1.60;99.90;;;;;;5078613;28;20626;-64
2022/01/15 02:43:28;;;;;;;5.70;1.63;;;1.60;99.90;;;;;;5075018;28;20032;-64
2022/01/15 02:45:55;;;;;;;3.95;2.20;;;1.60;99.90;;;;;;5085460;28;20667;-64
2022/01/15 02:48:26;;;;;;;3.63;1.90;;;1.60;99.90;;;;;;5081803;28;20645;-64
2022/01/15 02:50:52;;;;;;;4.70;2.10;;;1.50;99.90;;;;;;5080243;28;20044;-64
2022/01/15 02:53:18;;;;;;;3.35;1.98;;;1.60;99.90;;;;;;5077961;28;20032;-64
2022/01/15 02:55:49;;;;;;;3.53;1.77;;;1.60;99.90;;;;;;5083760;28;20039;-64
2022/01/15 02:58:16;;;;;;;7.85;1.98;;;1.60;99.90;;;;;;5079295;28;20047;-64
2022/01/15 03:00:42;;;;;;;7.10;2.00;;;1.50;99.90;;;;;;5074585;28;20174;-64
2022/01/15 03:03:08;;;;;;;20.27;2.30;;;1.50;99.90;;;;;;5078587;28;20135;-64
2022/01/15 03:05:33;;;;;;;20.08;2.40;;;1.50;99.90;;;;;;5079315;28;20044;-65
2022/01/15 03:07:59;;;;;;;7.53;2.13;;;1.60;99.90;;;;;;5075050;28;20039;-65
2022/01/15 03:10:25;;;;;;;4.32;1.95;;;1.50;99.90;;;;;;5087076;28;20130;-64
2022/01/15 03:12:53;;;;;;;3.80;2.00;;;1.50;99.90;;;;;;5082427;28;20043;-64
2022/01/15 03:15:19;;;;;;;4.55;2.10;;;1.50;99.90;;;;;;5085943;28;20043;-64
2022/01/15 03:17:47;;;;;;;2.67;1.63;;;1.50;99.90;;;;;;5081882;28;20105;-64
2022/01/15 03:20:14;;;;;;;3.38;1.67;;;1.50;99.90;;;;;;5084441;28;20154;-64
2022/01/15 03:22:40;;;;;;;3.13;1.58;;;1.40;99.90;;;;;;5077745;28;20074;-64
2022/01/15 03:25:06;;;;;;;2.63;1.25;;;1.50;99.90;;;;;;5083178;28;20042;-64
2022/01/15 03:27:32;;;;;;;3.97;1.70;;;1.50;99.90;;;;;;5077591;28;20139;-64
2022/01/15 03:29:57;;;;;;;3.72;1.48;;;1.50;99.90;;;;;;5075722;28;20513;-63
2022/01/15 03:32:23;;;;;;;2.05;1.45;;;1.40;99.90;;;;;;5071964;28;20051;-64
2022/01/15 03:34:49;;;;;;;2.70;1.50;;;1.50;99.90;;;;;;5083704;28;20035;-64
2022/01/15 03:37:16;;;;;;;2.17;1.40;;;1.50;99.90;;;;;;5085452;28;20085;-64
2022/01/15 03:39:43;;;;;;;2.08;1.30;;;1.50;99.90;;;;;;5083708;28;20040;-64
2022/01/15 03:42:12;;;;;;;2.42;1.33;;;1.50;99.90;;;;;;5080521;28;20062;-64
2022/01/15 03:44:42;;;;;;;5.47;1.52;;;1.50;99.90;;;;;;5072875;28;20052;-65
2022/01/15 03:47:09;;;;;;;2.58;1.50;;;1.50;99.90;;;;;;5077145;28;20052;-65
2022/01/15 03:49:35;;;;;;;2.85;1.90;;;1.60;99.90;;;;;;5080852;28;20096;-64
2022/01/15 03:52:00;;;;;;;8.00;1.88;;;1.50;99.90;;;;;;5077319;28;20438;-64
2022/01/15 03:54:26;;;;;;;4.40;2.03;;;1.40;99.90;;;;;;5081959;28;20054;-64
2022/01/15 03:56:52;;;;;;;3.85;1.85;;;1.40;99.90;;;;;;5087500;28;20040;-64
2022/01/15 03:59:17;;;;;;;4.35;1.80;;;1.30;99.90;;;;;;5081923;28;20067;-64
2022/01/15 04:01:43;;;;;;;3.35;1.75;;;1.20;99.90;;;;;;5081653;28;20041;-64
2022/01/15 04:04:09;;;;;;;2.70;1.70;;;1.30;99.90;;;;;;5077498;28;20115;-64
2022/01/15 04:06:34;;;;;;;3.17;2.00;;;1.30;99.90;;;;;;5069806;28;20090;-63
2022/01/15 04:09:00;;;;;;;3.05;1.80;;;1.20;99.90;;;;;;5086155;28;20092;-64
2022/01/15 04:11:25;;;;;;;2.65;1.60;;;1.10;99.90;;;;;;5085743;28;20550;-64
2022/01/15 04:13:51;;;;;;;3.40;1.67;;;1.00;99.90;;;;;;5080119;28;20047;-65
2022/01/15 04:16:17;;;;;;;2.33;1.52;;;0.90;99.90;;;;;;5086225;28;20040;-64
2022/01/15 04:18:42;;;;;;;2.42;1.50;;;0.80;99.90;;;;;;5086459;28;20083;-65
2022/01/15 04:21:11;;;;;;;2.50;1.70;;;0.90;99.90;;;;;;5088396;28;20112;-64
2022/01/15 04:23:37;;;;;;;2.90;1.67;;;0.80;99.90;;;;;;5085138;28;20048;-64
2022/01/15 04:26:04;;;;;;;2.83;1.58;;;0.70;99.90;;;;;;5089342;28;20040;-64
2022/01/15 04:28:33;;;;;;;3.05;1.75;;;0.70;99.90;;;;;;5085247;28;20411;-64
2022/01/15 04:31:05;;;;;;;3.05;1.63;;;0.70;99.90;;;;;;5062265;28;20045;-65
2022/01/15 04:33:37;;;;;;;6.72;1.83;;;0.70;99.90;;;;;;5081104;28;20170;-64
2022/01/15 04:36:04;;;;;;;4.72;1.80;;;0.60;99.90;;;;;;5081990;28;20036;-63
2022/01/15 04:38:34;;;;;;;2.40;1.50;;;0.60;99.90;;;;;;5085891;28;20188;-64
2022/01/15 04:41:00;;;;;;;3.00;1.75;;;0.60;99.90;;;;;;5076844;28;20047;-64
2022/01/15 04:43:25;;;;;;;2.60;1.77;;;0.50;99.90;;;;;;5081409;28;20036;-63
2022/01/15 04:45:51;;;;;;;4.03;1.70;;;0.50;99.90;;;;;;5085511;28;20044;-66
2022/01/15 04:48:16;;;;;;;2.22;1.33;;;0.50;99.90;;;;;;5083351;28;20036;-65
2022/01/15 04:50:42;;;;;;;3.47;1.88;;;0.50;99.90;;;;;;5085034;28;20110;-64
2022/01/15 04:53:09;;;;;;;2.20;1.33;;;0.50;99.90;;;;;;5084128;28;20036;-65
2022/01/15 04:55:36;;;;;;;3.22;1.90;;;0.50;99.90;;;;;;5088910;28;20089;-65
2022/01/15 04:58:02;;;;;;;1.90;1.08;;;0.50;99.90;;;;;;5084753;28;20046;-65
2022/01/15 05:00:28;;;;;;;1.85;1.00;;;0.50;99.90;;;;;;5072956;28;20117;-64
2022/01/15 05:02:53;;;;;;;1.92;1.15;;;0.50;99.90;;;;;;5053415;28;20077;-65
2022/01/15 05:05:19;;;;;;;2.53;1.38;;;0.40;99.90;;;;;;5084795;28;20108;-65
2022/01/15 05:07:45;;;;;;;3.13;1.40;;;0.30;99.90;;;;;;5081379;28;20040;-65
2022/01/15 05:10:13;;;;;;;1.73;1.20;;;0.20;99.90;;;;;;5086968;28;20432;-65
2022/01/15 05:12:42;;;;;;;1.98;1.25;;;0.20;99.90;;;;;;5083536;28;20043;-65
2022/01/15 05:15:09;;;;;;;2.00;1.13;;;0.20;99.90;;;;;;5077973;28;20039;-64
2022/01/15 05:17:35;;;;;;;2.05;1.20;;;0.20;99.90;;;;;;5079709;28;20044;-66
2022/01/15 05:20:01;;;;;;;3.00;1.48;;;0.20;99.90;;;;;;5080072;28;20030;-61
2022/01/15 05:22:27;;;;;;;2.22;1.30;;;0.20;99.90;;;;;;5078683;28;20036;-63
2022/01/15 05:24:53;;;;;;;2.00;1.25;;;0.10;99.90;;;;;;5087193;28;20146;-64
2022/01/15 05:27:18;;;;;;;2.65;1.67;;;0.10;99.90;;;;;;5085675;28;20228;-64
2022/01/15 05:29:45;;;;;;;2.05;1.10;;;0.10;99.90;;;;;;5078745;28;20086;-65
2022/01/15 05:32:10;;;;;;;1.30;1.00;;;0.00;99.90;;;;;;5077167;28;20127;-64
2022/01/15 05:34:36;;;;;;;1.50;0.80;;;0.10;99.90;;;;;;5087854;28;20149;-64
2022/01/15 05:37:02;;;;;;;1.30;0.70;;;0.10;99.90;;;;;;5085761;28;20758;-65
2022/01/15 05:39:28;;;;;;;1.45;1.00;;;0.10;99.90;;;;;;5083784;28;20048;-66
2022/01/15 05:41:55;;;;;;;2.58;1.10;;;0.00;99.90;;;;;;5081972;28;20969;-65
2022/01/15 05:44:21;;;;;;;1.98;1.25;;;0.00;99.90;;;;;;5083411;28;20038;-64
2022/01/15 05:46:46;;;;;;;1.25;0.90;;;0.10;99.90;;;;;;5081705;28;20032;-64
2022/01/15 05:49:13;;;;;;;1.40;1.00;;;0.00;99.90;;;;;;5083399;28;20036;-65
2022/01/15 05:51:39;;;;;;;2.58;1.27;;;0.00;99.90;;;;;;5080535;28;20109;-66
2022/01/15 05:54:10;;;;;;;1.65;0.93;;;0.00;99.90;;;;;;5083623;28;20051;-65
2022/01/15 05:56:37;;;;;;;1.77;1.10;;;0.00;99.90;;;;;;5081710;28;20059;-64
2022/01/15 05:59:03;;;;;;;1.63;1.02;;;0.00;99.90;;;;;;5078471;28;20422;-61
2022/01/15 06:01:29;;;;;;;1.73;1.20;;;0.00;99.90;;;;;;5078127;28;20128;-65
2022/01/15 06:03:55;;;;;;;2.17;1.45;;;-0.10;99.90;;;;;;5083333;28;20107;-64
2022/01/15 06:06:21;;;;;;;7.45;1.30;;;-0.10;99.90;;;;;;5083329;28;20264;-64
2022/01/15 06:08:47;;;;;;;2.20;1.25;;;-0.20;99.90;;;;;;5084634;28;20165;-63
2022/01/15 06:11:17;;;;;;;1.75;0.90;;;-0.20;99.90;;;;;;5088986;28;20066;-62
2022/01/15 06:13:46;;;;;;;2.13;1.17;;;-0.10;99.90;;;;;;5080872;28;20036;-65
2022/01/15 06:16:13;;;;;;;2.60;1.10;;;-0.10;99.90;;;;;;5086718;28;20040;-65
2022/01/15 06:18:38;;;;;;;1.90;1.10;;;-0.20;99.90;;;;;;5083547;28;20079;-63
2022/01/15 06:21:04;;;;;;;3.00;1.80;;;-0.20;99.90;;;;;;5082039;28;20040;-62
2022/01/15 06:23:30;;;;;;;4.38;1.25;;;-0.20;99.90;;;;;;5079658;28;20071;-63
2022/01/15 06:25:55;;;;;;;5.60;1.10;;;-0.20;99.90;;;;;;5083684;28;20450;-63
2022/01/15 06:28:21;;;;;;;1.27;0.90;;;-0.20;99.90;;;;;;5078349;28;20079;-64
2022/01/15 06:30:47;;;;;;;2.30;1.10;;;-0.10;99.90;;;;;;5076885;28;20039;-64
2022/01/15 06:33:13;;;;;;;2.42;1.02;;;-0.10;99.90;;;;;;5073107;28;20451;-64
2022/01/15 06:35:39;;;;;;;2.05;1.10;;;-0.10;99.90;;;;;;5082127;28;20040;-64
2022/01/15 06:38:05;;;;;;;5.70;1.10;;;-0.10;99.90;;;;;;5080307;28;20076;-64
2022/01/15 06:40:31;;;;;;;4.53;1.35;;;-0.10;99.90;;;;;;5083033;28;20044;-63
2022/01/15 06:42:59;;;;;;;4.50;1.30;;;-0.20;99.90;;;;;;5077970;28;20078;-64
2022/01/15 06:45:29;;;;;;;2.38;1.08;;;-0.20;99.90;;;;;;5084622;28;20642;-65
2022/01/15 06:47:54;;;;;;;2.20;1.45;;;-0.30;99.90;;;;;;5079024;28;20036;-64
2022/01/15 06:50:22;;;;;;;13.63;2.30;;;-0.20;99.90;;;;;;5080609;28;20047;-63
2022/01/15 06:52:48;;;;;;;124.63;6.22;;;-0.30;99.90;;;;;;5079031;28;20512;-63
2022/01/15 06:55:14;;;;;;;159.77;7.03;;;-0.20;99.90;;;;;;5084551;28;20032;-64
2022/01/15 06:57:40;;;;;;;99.32;5.40;;;-0.20;99.90;;;;;;5077558;28;20040;-63
2022/01/15 07:00:08;;;;;;;29.80;4.50;;;-0.30;99.90;;;;;;5074381;28;20663;-63
2022/01/15 07:02:34;;;;;;;41.13;4.65;;;-0.40;99.90;;;;;;5071723;28;20043;-63
2022/01/15 07:04:59;;;;;;;15.55;3.85;;;-0.40;99.90;;;;;;5087076;28;20032;-63
2022/01/15 07:07:25;;;;;;;6.40;2.97;;;-0.40;99.90;;;;;;5083323;28;20040;-64
2022/01/15 07:09:51;;;;;;;36.33;4.43;;;-0.40;99.90;;;;;;5083240;28;20068;-66
2022/01/15 07:12:17;;;;;;;50.10;4.60;;;-0.50;99.90;;;;;;5085365;28;20074;-63
2022/01/15 07:14:42;;;;;;;44.63;4.20;;;-0.50;99.90;;;;;;5085406;28;20044;-64
2022/01/15 07:17:10;;;;;;;16.15;3.67;;;-0.60;99.90;;;;;;5084971;28;20042;-63
2022/01/15 07:19:38;;;;;;;7.30;3.60;;;-0.60;99.90;;;;;;5084630;28;20446;-63
2022/01/15 07:22:05;;;;;;;9.63;3.30;;;-0.60;99.90;;;;;;5084278;28;20036;-63
2022/01/15 07:24:31;;;;;;;21.00;3.33;;;-0.60;99.90;;;;;;5085071;28;20492;-63
2022/01/15 07:26:57;;;;;;;7.63;4.10;;;-0.60;99.90;;;;;;5084400;28;20127;-63
2022/01/15 07:29:24;;;;;;;7.55;3.53;;;-0.60;99.90;;;;;;5081976;28;20040;-64
2022/01/15 07:31:51;;;;;;;7.65;3.10;;;-0.60;99.90;;;;;;5081342;28;20036;-63
2022/01/15 07:34:18;;;;;;;9.20;3.42;;;-0.60;99.90;;;;;;5083769;28;20119;-64
2022/01/15 07:36:54;;;;;;;16.85;4.07;;;-0.60;99.90;;;;;;5086739;28;20492;-63
2022/01/15 07:39:23;;;;;;;11.02;4.15;;;-0.60;99.90;;;;;;5085819;28;20492;-64
2022/01/15 07:41:50;;;;;;;13.57;3.30;;;-0.60;99.90;;;;;;5081263;28;20122;-63
2022/01/15 07:44:16;;;;;;;6.78;3.20;;;-0.60;99.90;;;;;;5084470;28;20450;-63
2022/01/15 07:46:42;;;;;;;6.78;3.05;;;-0.60;99.90;;;;;;5088022;28;20090;-64
2022/01/15 07:49:07;;;;;;;4.65;2.42;;;-0.70;99.90;;;;;;5086762;28;20097;-63
2022/01/15 07:51:33;;;;;;;4.10;2.38;;;-0.70;99.90;;;;;;5083479;28;20091;-63
2022/01/15 07:53:59;;;;;;;5.63;2.50;;;-0.60;99.90;;;;;;5082652;28;20044;-64
2022/01/15 07:56:24;;;;;;;4.03;1.80;;;-0.60;99.90;;;;;;5084513;28;20127;-63
2022/01/15 07:58:50;;;;;;;3.08;1.88;;;-0.60;99.90;;;;;;5080755;28;20049;-63
2022/01/15 08:01:17;;;;;;;3.10;1.67;;;-0.50;99.90;;;;;;5080809;28;20123;-64
2022/01/15 08:03:43;;;;;;;3.63;1.83;;;-0.60;99.90;;;;;;5084875;28;20496;-64
2022/01/15 08:06:10;;;;;;;4.88;2.50;;;-0.50;99.90;;;;;;5089649;28;20044;-63
2022/01/15 08:08:35;;;;;;;5.65;2.38;;;-0.50;99.90;;;;;;5083986;28;20083;-69
2022/01/15 08:11:02;;;;;;;5.45;2.40;;;-0.50;99.90;;;;;;5094364;28;20078;-64
2022/01/15 08:13:30;;;;;;;6.35;2.72;;;-0.50;99.90;;;;;;5072867;28;20120;-63
2022/01/15 08:15:57;;;;;;;6.45;2.67;;;-0.60;99.90;;;;;;5086586;28;20036;-63
2022/01/15 08:18:23;;;;;;;7.78;2.58;;;-0.60;99.90;;;;;;5079595;28;20041;-64
2022/01/15 08:20:49;;;;;;;8.35;3.10;;;-0.50;99.90;;;;;;5075863;28;20209;-65
2022/01/15 08:23:15;;;;;;;13.43;3.03;;;-0.50;99.90;;;;;;5066850;28;20503;-66
2022/01/15 08:25:41;;;;;;;5.50;2.60;;;-0.50;99.90;;;;;;5069532;28;20032;-64
2022/01/15 08:28:06;;;;;;;5.60;2.78;;;-0.50;99.90;;;;;;5069302;28;20395;-64
2022/01/15 08:30:32;;;;;;;4.18;2.05;;;-0.40;99.90;;;;;;5072625;28;20047;-63
2022/01/15 08:32:58;;;;;;;3.92;2.50;;;-0.40;99.90;;;;;;5071217;28;20032;-65
2022/01/15 08:35:24;;;;;;;3.28;1.63;;;-0.30;99.90;;;;;;5072026;28;20060;-63
2022/01/15 08:37:50;;;;;;;2.75;1.85;;;-0.20;99.90;;;;;;5077303;28;20056;-63
2022/01/15 08:40:17;;;;;;;3.90;2.22;;;-0.40;99.90;;;;;;5076358;28;20070;-64
2022/01/15 08:42:43;;;;;;;2.97;1.80;;;-0.30;99.90;;;;;;5079800;28;20044;-63
2022/01/15 08:45:10;;;;;;;2.75;1.63;;;-0.20;99.90;;;;;;5083923;28;20036;-63
2022/01/15 08:47:38;;;;;;;2.88;1.70;;;0.00;99.90;;;;;;5083255;28;20470;-64
2022/01/15 08:50:05;;;;;;;2.85;1.73;;;-0.10;99.90;;;;;;5085424;28;20040;-63
2022/01/15 08:52:30;;;;;;;4.97;1.88;;;0.00;99.90;;;;;;5085949;28;20044;-63
2022/01/15 08:54:57;;;;;;;5.15;2.25;;;0.10;99.90;;;;;;5088587;28;20055;-63
2022/01/15 08:57:23;;;;;;;6.80;3.63;;;0.20;99.90;;;;;;5084587;28;20079;-63
2022/01/15 08:59:48;;;;;;;16.05;7.65;;;0.20;99.90;;;;;;5081449;28;20067;-64
2022/01/15 09:02:14;;;;;;;11.57;4.93;;;0.20;99.90;;;;;;5082729;28;20032;-66
2022/01/15 09:04:40;;;;;;;8.93;4.55;;;0.30;99.90;;;;;;5086086;28;20047;-65
2022/01/15 09:07:05;;;;;;;16.70;5.53;;;0.30;99.90;;;;;;5086812;28;20048;-63
2022/01/15 09:09:31;;;;;;;9.35;5.97;;;0.50;99.90;;;;;;5084593;28;20055;-63
2022/01/15 09:11:57;;;;;;;7.85;4.82;;;0.50;99.90;;;;;;5086416;28;20159;-63
2022/01/15 09:14:23;;;;;;;7.32;3.55;;;0.60;99.90;;;;;;5084946;28;20040;-63
2022/01/15 09:16:48;;;;;;;5.63;3.33;;;0.60;99.90;;;;;;5085939;28;20047;-63
2022/01/15 09:19:14;;;;;;;6.00;3.53;;;0.60;99.90;;;;;;5084897;28;20043;-63
2022/01/15 09:21:39;;;;;;;8.32;3.15;;;0.70;99.90;;;;;;5083493;28;20089;-64
2022/01/15 09:24:05;;;;;;;10.07;2.75;;;0.90;99.90;;;;;;5086103;28;20043;-64
2022/01/15 09:26:49;;;;;;;8.50;3.15;;;1.10;99.90;;;;;;5085212;28;20082;-63
2022/01/15 09:32:02;;;;;;;4.60;2.40;;;1.30;99.90;;;;;;5077691;28;20028;-64
2022/01/15 09:34:28;;;;;;;5.97;2.80;;;1.30;99.90;;;;;;5084050;28;20040;-65
2022/01/15 09:36:53;;;;;;;5.63;3.00;;;1.40;99.90;;;;;;5082531;28;20048;-65
2022/01/15 09:39:20;;;;;;;6.20;3.28;;;1.40;99.90;;;;;;5081332;28;20028;-65
2022/01/15 09:41:48;;;;;;;4.78;2.50;;;1.40;99.90;;;;;;5082501;28;20044;-63
2022/01/15 09:44:18;;;;;;;3.90;2.10;;;1.30;99.90;;;;;;5081276;28;20065;-63
2022/01/15 09:46:47;;;;;;;4.78;2.72;;;1.40;99.90;;;;;;5085049;28;20083;-65
2022/01/15 09:49:18;;;;;;;3.25;1.85;;;1.40;99.90;;;;;;5082626;28;20109;-63
2022/01/15 09:51:45;;;;;;;3.40;1.20;;;1.40;99.90;;;;;;5081006;28;20032;-63
2022/01/15 09:54:15;;;;;;;4.90;1.10;;;1.50;99.90;;;;;;5088399;28;20062;-63
2022/01/15 09:56:41;;;;;;;3.45;2.05;;;1.60;99.90;;;;;;5086567;28;20060;-64
2022/01/15 09:59:07;;;;;;;6.20;3.63;;;1.70;99.90;;;;;;5079705;28;20040;-63
2022/01/15 10:01:33;;;;;;;2.95;2.30;;;1.80;99.90;;;;;;5078861;28;20036;-63
2022/01/15 10:03:59;;;;;;;3.35;2.35;;;1.90;99.90;;;;;;5080358;28;20028;-64
2022/01/15 10:06:25;;;;;;;6.53;3.08;;;2.00;99.90;;;;;;5085628;28;20055;-64
2022/01/15 10:09:06;;;;;;;4.93;3.08;;;1.90;99.90;;;;;;5080998;28;20510;-64
2022/01/15 10:11:46;;;;;;;4.63;2.92;;;2.10;99.90;;;;;;5085808;28;20059;-65
2022/01/15 10:14:25;;;;;;;6.90;4.55;;;2.10;99.90;;;;;;5078152;28;20032;-65
2022/01/15 10:16:51;;;;;;;6.57;4.00;;;2.00;99.90;;;;;;5084761;28;20109;-63
2022/01/15 10:19:30;;;;;;;7.38;3.67;;;2.10;99.90;;;;;;5084160;28;20529;-65
2022/01/15 10:22:06;;;;;;;6.20;3.25;;;2.30;99.90;;;;;;5075091;28;20036;-63
2022/01/15 10:24:32;;;;;;;;;;;2.30;99.90;;;;;;5082378;28;20036;-64
2022/01/15 10:27:29;;;;;;;6.30;2.77;;;2.50;99.90;;;;;;5085452;28;19924;-64
2022/01/15 10:30:15;;;;;;;4.05;2.20;;;2.50;99.90;;;;;;5057291;28;20422;-64
2022/01/15 10:32:51;;;;;;;4.82;2.28;;;2.40;99.90;;;;;;5075530;28;20508;-63
2022/01/15 10:35:18;;;;;;;;;;;2.60;99.90;;;;;;5083829;28;20487;-64
2022/01/15 10:37:57;;;;;;;3.83;2.50;;;2.70;99.90;;;;;;5081988;28;19928;-64
2022/01/15 10:40:25;;;;;;;4.10;2.67;;;2.90;99.90;;;;;;5085565;28;20044;-63
2022/01/15 10:43:00;;;;;;;3.97;2.72;;;3.00;99.90;;;;;;5081313;28;20037;-64
2022/01/15 10:45:31;;;;;;;5.30;2.70;;;3.10;99.90;;;;;;5087289;28;20039;-64
2022/01/15 10:48:00;;;;;;;5.13;2.97;;;3.10;99.90;;;;;;5085877;28;20068;-63
2022/01/15 10:50:27;;;;;;;6.70;2.80;;;3.30;99.90;;;;;;5085239;28;20051;-65
2022/01/15 10:52:54;;;;;;;4.40;2.65;;;3.40;99.90;;;;;;5076699;28;20110;-65
2022/01/15 10:55:31;;;;;;;8.63;1.92;;;3.50;99.90;;;;;;5083159;28;20063;-64
2022/01/15 10:57:59;;;;;;;5.97;1.98;;;3.40;99.90;;;;;;5081673;28;20042;-66
2022/01/15 11:00:28;;;;;;;4.50;2.85;;;3.40;99.90;;;;;;5083566;28;20044;-66
2022/01/15 11:03:00;;;;;;;7.47;4.72;;;3.40;99.90;;;;;;5073984;28;20043;-64
2022/01/15 11:05:38;;;;;;;7.78;4.72;;;3.50;99.90;;;;;;5083108;28;20336;-65
2022/01/15 11:08:08;;;;;;;5.80;3.50;;;3.60;99.90;;;;;;5074319;28;20040;-64
2022/01/15 11:11:00;;;;;;;4.85;2.47;;;3.70;99.90;;;;;;5088457;28;20035;-64
2022/01/15 11:13:31;;;;;;;6.40;2.70;;;3.70;99.90;;;;;;5070536;28;20083;-63
2022/01/15 11:16:04;;;;;;;5.45;2.67;;;3.70;99.90;;;;;;5083251;28;20044;-64
2022/01/15 11:18:38;;;;;;;4.53;2.90;;;3.80;99.90;;;;;;5078525;28;20062;-64
2022/01/15 11:21:08;;;;;;;4.72;2.80;;;3.90;99.90;;;;;;5075872;28;20040;-64
2022/01/15 11:23:37;;;;;;;6.10;2.78;;;3.90;99.90;;;;;;5082693;28;20047;-64
2022/01/15 11:26:06;;;;;;;5.88;2.42;;;4.00;99.90;;;;;;5087111;28;20044;-64
2022/01/15 11:28:35;;;;;;;4.05;2.38;;;4.00;99.90;;;;;;5084834;28;20036;-64
2022/01/15 11:31:05;;;;;;;8.60;2.35;;;3.90;99.90;;;;;;5084203;28;20036;-64
2022/01/15 11:33:53;;;;;;;4.30;2.50;;;4.00;99.90;;;;;;5078095;28;20048;-64
2022/01/15 11:36:31;;;;;;;5.07;2.90;;;3.90;99.90;;;;;;5080274;28;20048;-66
2022/01/15 11:38:57;;;;;;;3.83;2.28;;;4.00;99.90;;;;;;5083305;28;20036;-65
2022/01/15 11:41:26;;;;;;;4.40;2.75;;;4.00;99.90;;;;;;5083355;28;20062;-63
2022/01/15 11:44:05;;;;;;;4.47;2.67;;;4.00;99.90;;;;;;5080456;28;20090;-64
2022/01/15 11:46:39;;;;;;;4.10;2.20;;;4.10;99.90;;;;;;5084130;28;20045;-64
2022/01/15 11:49:23;;;;;;;3.78;2.45;;;4.20;99.90;;;;;;5082485;28;20056;-64
2022/01/15 11:51:56;;;;;;;3.88;2.50;;;4.20;99.90;;;;;;5079559;28;20036;-64
2022/01/15 11:54:22;;;;;;;8.15;4.78;;;4.30;99.90;;;;;;5082398;28;20039;-64
2022/01/15 11:56:49;;;;;;;4.20;2.38;;;4.40;99.90;;;;;;5080448;28;20090;-64
2022/01/15 11:59:23;;;;;;;22.02;3.03;;;4.50;99.90;;;;;;5074560;28;20041;-64
2022/01/15 12:01:56;;;;;;;5.03;2.25;;;4.50;99.90;;;;;;5080682;28;20109;-64
2022/01/15 12:04:25;;;;;;;4.22;2.30;;;4.60;99.90;;;;;;5081191;28;20039;-64
2022/01/15 12:09:56;;;;;;;4.10;2.33;;;4.70;99.90;;;;;;5083431;28;20040;-64
2022/01/15 12:12:29;;;;;;;14.73;6.93;;;4.80;99.90;;;;;;5075969;28;20522;-64
2022/01/15 12:15:01;;;;;;;24.35;12.48;;;4.70;99.90;;;;;;5088585;28;20039;-64
2022/01/15 12:17:30;;;;;;;14.60;6.80;;;4.70;99.90;;;;;;5085938;28;20054;-64
2022/01/15 12:19:57;;;;;;;24.95;13.38;;;4.80;99.90;;;;;;5083191;28;20511;-64
2022/01/15 12:22:41;;;;;;;28.23;15.10;;;4.80;99.90;;;;;;5087085;28;20055;-64
2022/01/15 12:25:11;;;;;;;27.38;14.45;;;4.80;99.90;;;;;;5080794;28;20040;-63
2022/01/15 12:27:39;;;;;;;11.15;6.38;;;4.90;99.90;;;;;;5082769;28;20055;-66
2022/01/15 12:30:13;;;;;;;7.78;4.10;;;4.90;99.90;;;;;;5072956;28;20044;-65
2022/01/15 12:32:44;;;;;;;11.40;4.05;;;4.90;99.90;;;;;;5077580;28;20074;-65
2022/01/15 12:35:16;;;;;;;9.57;5.97;;;5.00;99.90;;;;;;5086715;28;20039;-66
2022/01/15 12:38:13;;;;;;;6.88;3.97;;;5.00;99.90;;;;;;5080965;28;20045;-64
2022/01/15 12:40:43;;;;;;;7.38;1.83;;;5.00;99.90;;;;;;5083926;28;20048;-64
2022/01/15 12:43:29;;;;;;;3.47;2.22;;;5.00;99.90;;;;;;5085464;28;20663;-64
2022/01/15 12:46:01;;;;;;;4.13;2.60;;;5.10;99.90;;;;;;5088690;28;20032;-64
2022/01/15 12:48:30;;;;;;;4.15;2.42;;;5.10;99.90;;;;;;5078162;28;20063;-64
2022/01/15 12:50:58;;;;;;;3.40;2.28;;;5.00;99.90;;;;;;5088844;28;20040;-65
2022/01/15 12:53:27;;;;;;;3.95;1.83;;;5.10;99.90;;;;;;5085281;28;20044;-63
2022/01/15 12:55:54;;;;;;;3.78;2.40;;;5.10;99.90;;;;;;5086218;28;21797;-64
2022/01/15 12:58:22;;;;;;;2.50;1.60;;;5.10;99.90;;;;;;5081044;28;20438;-65
2022/01/15 13:00:49;;;;;;;3.28;2.05;;;5.10;99.90;;;;;;5076649;28;20054;-64
2022/01/15 13:03:20;;;;;;;2.90;2.10;;;5.10;99.90;;;;;;5077383;28;20159;-64
2022/01/15 13:05:51;;;;;;;4.32;2.92;;;5.20;99.90;;;;;;5083371;28;20774;-64
2022/01/15 13:08:19;;;;;;;5.15;3.08;;;5.10;99.90;;;;;;5081059;28;20063;-64
2022/01/15 13:10:55;;;;;;;4.60;2.80;;;5.20;99.90;;;;;;5084542;28;20070;-67
2022/01/15 13:13:30;;;;;;;2.65;1.80;;;5.20;99.90;;;;;;5071884;28;20412;-67
2022/01/15 13:16:03;;;;;;;2.13;1.30;;;5.20;99.90;;;;;;5087455;28;20044;-65
2022/01/15 13:18:32;;;;;;;2.40;1.60;;;5.20;99.90;;;;;;5078196;28;20036;-65
2022/01/15 13:20:58;;;;;;;3.15;1.42;;;5.20;99.90;;;;;;5086509;28;20031;-66
2022/01/15 13:23:33;;;;;;;1.27;1.10;;;5.10;99.90;;;;;;5083361;28;20089;-65
2022/01/15 13:25:58;;;;;;;2.88;1.38;;;5.10;99.90;;;;;;5079275;28;20721;-63
2022/01/15 13:28:25;;;;;;;1.80;1.10;;;5.10;99.90;;;;;;5082039;28;20076;-64